createdAt,value
2019-05-11T00:01:18.756Z,76.80
2019-05-11T00:03:48.750Z,76.90
2019-05-11T00:06:18.823Z,77.00
2019-05-11T00:08:48.806Z,76.90
2019-05-11T00:11:18.802Z,76.90
2019-05-11T00:13:48.793Z,76.90
2019-05-11T00:16:19.238Z,76.70
2019-05-11T00:18:49.319Z,76.90
2019-05-11T00:21:19.389Z,77.00
2019-05-11T00:23:49.420Z,76.90
2019-05-11T00:26:19.543Z,76.80
2019-05-11T00:28:49.674Z,76.80
2019-05-11T00:31:19.889Z,76.60
2019-05-11T00:33:51.026Z,76.60
2019-05-11T00:36:21.016Z,76.70
2019-05-11T00:38:51.078Z,76.90
2019-05-11T00:41:22.487Z,77.00
2019-05-11T00:43:52.609Z,77.10
2019-05-11T00:46:22.755Z,76.40
2019-05-11T00:48:53.625Z,77.20
2019-05-11T00:51:24.662Z,77.30
2019-05-11T00:53:55.392Z,78.30
2019-05-11T00:56:25.383Z,78.50
2019-05-11T00:58:55.514Z,79.00
2019-05-11T01:01:25.520Z,79.90
2019-05-11T01:03:55.546Z,79.90
2019-05-11T01:06:25.692Z,80.60
2019-05-11T01:08:55.687Z,80.80
2019-05-11T01:11:25.940Z,80.90
2019-05-11T01:13:55.992Z,80.80
2019-05-11T01:16:25.991Z,81.20
2019-05-11T01:18:56.029Z,81.20
2019-05-11T01:21:26.050Z,81.30
2019-05-11T01:23:57.789Z,81.60
2019-05-11T01:26:27.974Z,81.90
2019-05-11T01:28:58.205Z,81.40
2019-05-11T01:31:28.237Z,81.40
2019-05-11T01:33:58.335Z,81.30
2019-05-11T01:36:28.458Z,81.40
2019-05-11T01:38:58.507Z,81.40
2019-05-11T01:41:28.579Z,81.50
2019-05-11T01:43:58.763Z,81.80
2019-05-11T01:46:28.812Z,82.00
2019-05-11T01:48:58.871Z,82.40
2019-05-11T01:51:29.044Z,82.50
2019-05-11T01:53:59.044Z,82.40
2019-05-11T01:56:29.126Z,82.50
2019-05-11T01:58:59.161Z,82.80
2019-05-11T02:01:29.018Z,83.00
2019-05-11T02:03:59.064Z,83.40
2019-05-11T02:06:29.109Z,83.90
2019-05-11T02:08:59.122Z,83.90
2019-05-11T02:11:29.036Z,84.30
2019-05-11T02:13:58.904Z,84.20
2019-05-11T02:16:28.827Z,84.60
2019-05-11T02:18:58.763Z,84.40
2019-05-11T02:21:28.777Z,84.60
2019-05-11T02:23:58.701Z,84.80
2019-05-11T02:26:28.642Z,85.00
2019-05-11T02:28:58.572Z,85.80
2019-05-11T02:31:28.434Z,85.70
2019-05-11T02:33:59.496Z,85.90
2019-05-11T02:36:29.413Z,86.00
2019-05-11T02:38:59.367Z,85.70
2019-05-11T02:41:36.373Z,86.40
2019-05-11T02:44:00.950Z,86.50
2019-05-11T02:46:30.895Z,88.00
2019-05-11T02:49:00.821Z,87.80
2019-05-11T02:51:31.222Z,87.60
2019-05-11T02:54:02.904Z,87.80
2019-05-11T02:56:32.832Z,88.20
2019-05-11T02:59:02.835Z,88.60
2019-05-11T03:01:32.837Z,88.40
2019-05-11T03:04:02.704Z,88.30
2019-05-11T03:06:32.591Z,88.50
2019-05-11T03:09:06.024Z,88.60
2019-05-11T03:11:52.827Z,88.40
2019-05-11T03:14:07.751Z,88.60
2019-05-11T03:16:37.849Z,88.50
2019-05-11T03:19:07.864Z,88.90
2019-05-11T03:21:37.862Z,88.70
2019-05-11T03:24:07.889Z,88.90
2019-05-11T03:26:37.909Z,88.60
2019-05-11T03:29:08.263Z,88.80
2019-05-11T03:31:41.626Z,88.90
2019-05-11T03:34:11.611Z,89.20
2019-05-11T03:36:41.559Z,89.30
2019-05-11T03:39:12.118Z,89.50
2019-05-11T03:41:43.121Z,89.70
2019-05-11T03:44:13.197Z,89.60
2019-05-11T03:46:43.880Z,89.50
2019-05-11T03:49:14.045Z,89.50
2019-05-11T03:51:44.032Z,89.70
2019-05-11T03:54:13.901Z,89.60
2019-05-11T03:56:43.871Z,89.70
2019-05-11T03:59:13.792Z,90.00
2019-05-11T04:01:43.712Z,89.70
2019-05-11T04:04:16.438Z,89.40
2019-05-11T04:06:45.224Z,89.70
2019-05-11T04:09:15.387Z,89.70
2019-05-11T04:11:45.372Z,90.00
2019-05-11T04:14:15.284Z,90.00
2019-05-11T04:16:46.291Z,90.40
2019-05-11T04:19:16.153Z,90.60
2019-05-11T04:21:46.119Z,90.60
2019-05-11T04:24:16.119Z,90.30
2019-05-11T04:26:46.061Z,90.50
2019-05-11T04:29:15.932Z,90.50
2019-05-11T04:31:45.860Z,90.50
2019-05-11T04:34:15.874Z,90.60
2019-05-11T04:36:47.432Z,90.50
2019-05-11T04:39:17.379Z,90.60
2019-05-11T04:41:47.305Z,90.80
2019-05-11T04:44:17.252Z,90.90
2019-05-11T04:46:47.207Z,91.20
2019-05-11T04:49:17.172Z,91.10
2019-05-11T04:51:47.184Z,91.30
2019-05-11T04:54:17.890Z,91.40
2019-05-11T04:56:48.800Z,91.50
2019-05-11T04:59:18.746Z,91.60
2019-05-11T05:01:48.658Z,91.50
2019-05-11T05:04:18.531Z,91.20
2019-05-11T05:06:59.429Z,91.30
2019-05-11T05:09:20.133Z,91.40
2019-05-11T05:11:50.198Z,91.30
2019-05-11T05:14:21.684Z,91.10
2019-05-11T05:16:52.425Z,90.90
2019-05-11T05:19:24.979Z,90.90
2019-05-11T05:21:55.017Z,91.00
2019-05-11T05:24:25.045Z,90.90
2019-05-11T05:26:54.991Z,90.80
2019-05-11T05:29:24.999Z,90.80
2019-05-11T05:31:54.903Z,90.90
2019-05-11T05:34:24.894Z,90.90
2019-05-11T05:36:54.903Z,90.90
2019-05-11T05:39:24.765Z,91.10
2019-05-11T05:41:56.961Z,91.00
2019-05-11T05:44:27.769Z,90.90
2019-05-11T05:46:58.288Z,90.90
2019-05-11T05:49:30.140Z,91.00
2019-05-11T05:52:01.209Z,90.90
2019-05-11T05:54:31.588Z,90.70
2019-05-11T05:57:01.560Z,90.90
2019-05-11T05:59:32.030Z,90.50
2019-05-11T06:02:02.067Z,90.50
2019-05-11T06:04:32.060Z,90.70
2019-05-11T06:07:02.085Z,90.80
2019-05-11T06:09:32.007Z,90.80
2019-05-11T06:12:01.962Z,90.60
2019-05-11T06:14:31.891Z,90.80
2019-05-11T06:17:01.767Z,90.80
2019-05-11T06:19:31.688Z,90.50
2019-05-11T06:22:01.594Z,90.10
2019-05-11T06:24:31.680Z,89.30
2019-05-11T06:27:01.628Z,89.10
2019-05-11T06:29:32.540Z,88.80
2019-05-11T06:32:02.482Z,88.80
2019-05-11T06:34:32.429Z,89.40
2019-05-11T06:37:02.385Z,89.50
2019-05-11T06:39:32.469Z,89.40
2019-05-11T06:42:02.389Z,89.20
2019-05-11T06:44:32.261Z,88.90
2019-05-11T06:47:02.194Z,89.10
2019-05-11T06:49:32.277Z,89.40
2019-05-11T06:52:02.200Z,89.70
2019-05-11T06:54:32.180Z,89.70
2019-05-11T06:57:02.353Z,89.40
2019-05-11T06:59:32.233Z,89.20
2019-05-11T07:02:02.106Z,89.50
2019-05-11T07:04:32.133Z,89.60
2019-05-11T07:07:02.048Z,89.80
2019-05-11T07:09:32.378Z,89.90
2019-05-11T07:12:02.474Z,90.10
2019-05-11T07:14:32.423Z,90.00
2019-05-11T07:17:02.315Z,89.90
2019-05-11T07:19:32.236Z,89.90
2019-05-11T07:22:02.156Z,89.50
2019-05-11T07:24:32.091Z,89.40
2019-05-11T07:27:02.000Z,89.00
2019-05-11T07:29:31.865Z,87.70
2019-05-11T07:32:14.842Z,87.40
2019-05-11T07:34:33.434Z,86.90
2019-05-11T07:37:03.375Z,85.00
2019-05-11T07:39:33.244Z,82.60
2019-05-11T07:42:03.176Z,79.50
2019-05-11T07:44:38.323Z,78.50
2019-05-11T07:47:07.826Z,78.30
2019-05-11T07:49:38.301Z,77.40
2019-05-11T07:52:08.494Z,76.40
2019-05-11T07:54:38.653Z,77.00
2019-05-11T07:57:08.659Z,77.80
2019-05-11T07:59:38.609Z,78.50
2019-05-11T08:02:09.027Z,78.70
2019-05-11T08:04:39.764Z,79.00
2019-05-11T08:07:09.737Z,79.00
2019-05-11T08:09:39.708Z,78.70
2019-05-11T08:12:09.639Z,78.30
2019-05-11T08:14:56.439Z,78.10
2019-05-11T08:17:11.124Z,77.80
2019-05-11T08:19:40.996Z,77.70
2019-05-11T08:22:10.852Z,77.90
2019-05-11T08:24:40.800Z,78.80
2019-05-11T08:27:11.643Z,77.10
2019-05-11T08:29:41.623Z,76.70
2019-05-11T08:32:11.552Z,76.10
2019-05-11T08:34:41.499Z,75.20
2019-05-11T08:37:11.572Z,74.90
2019-05-11T08:39:41.966Z,74.20
2019-05-11T08:42:11.875Z,73.60
2019-05-11T08:44:43.308Z,73.70
2019-05-11T08:47:13.364Z,74.10
2019-05-11T08:49:43.235Z,74.30
2019-05-11T08:52:13.157Z,74.50
2019-05-11T08:54:43.036Z,74.50
2019-05-11T08:57:12.964Z,74.60
2019-05-11T08:59:42.858Z,74.50
2019-05-11T09:02:12.787Z,74.10
2019-05-11T09:04:42.743Z,74.20
2019-05-11T09:07:12.758Z,74.90
2019-05-11T09:09:42.712Z,75.30
2019-05-11T09:12:12.572Z,75.70
2019-05-11T09:14:42.968Z,75.70
2019-05-11T09:17:12.981Z,75.30
2019-05-11T09:19:42.970Z,73.70
2019-05-11T09:22:13.171Z,72.20
2019-05-11T09:24:43.143Z,69.20
2019-05-11T09:27:13.052Z,68.10
2019-05-11T09:29:42.892Z,67.40
2019-05-11T09:32:12.888Z,67.00
2019-05-11T09:34:42.868Z,65.60
2019-05-11T09:37:12.737Z,64.90
2019-05-11T09:39:42.671Z,64.60
2019-05-11T09:42:12.527Z,64.50
2019-05-11T09:44:42.381Z,64.90
2019-05-11T09:47:12.418Z,65.60
2019-05-11T09:49:47.506Z,66.40
2019-05-11T09:52:13.899Z,66.40
2019-05-11T09:54:43.851Z,66.50
2019-05-11T09:57:13.777Z,66.00
2019-05-11T09:59:43.789Z,67.70
2019-05-11T10:02:13.663Z,69.80
2019-05-11T10:04:43.566Z,72.20
2019-05-11T10:07:13.434Z,75.50
2019-05-11T10:09:43.283Z,77.00
2019-05-11T10:12:13.216Z,76.20
2019-05-11T10:14:43.146Z,76.10
2019-05-11T10:17:13.466Z,75.50
2019-05-11T10:19:45.146Z,74.30
2019-05-11T10:22:14.991Z,74.20
2019-05-11T10:24:44.933Z,74.50
2019-05-11T10:27:14.797Z,75.70
2019-05-11T10:29:44.677Z,76.60
2019-05-11T10:32:15.037Z,77.60
2019-05-11T10:34:45.121Z,78.70
2019-05-11T10:37:15.040Z,80.10
2019-05-11T10:39:45.016Z,78.30
2019-05-11T10:42:14.867Z,76.30
2019-05-11T10:44:44.780Z,74.60
2019-05-11T10:47:14.728Z,72.20
2019-05-11T10:49:44.700Z,71.90
2019-05-11T10:52:14.588Z,72.30
2019-05-11T10:54:44.462Z,69.80
2019-05-11T10:57:14.388Z,70.60
2019-05-11T10:59:44.396Z,70.50
2019-05-11T11:02:14.308Z,69.90
2019-05-11T11:04:44.159Z,70.30
2019-05-11T11:07:16.395Z,68.10
2019-05-11T11:09:45.587Z,64.60
2019-05-11T11:12:15.436Z,61.40
2019-05-11T11:14:48.160Z,62.20
2019-05-11T11:17:19.099Z,62.70
2019-05-11T11:19:49.352Z,63.20
2019-05-11T11:22:36.212Z,64.10
2019-05-11T11:24:50.950Z,64.80
2019-05-11T11:27:20.876Z,65.80
2019-05-11T11:29:50.789Z,66.40
2019-05-11T11:32:20.702Z,66.60
2019-05-11T11:34:50.830Z,66.10
2019-05-11T11:37:20.874Z,65.10
2019-05-11T11:39:51.888Z,63.50
2019-05-11T11:42:21.813Z,60.90
2019-05-11T11:44:51.685Z,56.90
2019-05-11T11:47:21.881Z,53.90
2019-05-11T11:49:51.872Z,51.60
2019-05-11T11:52:21.758Z,51.00
2019-05-11T11:54:51.942Z,52.50
2019-05-11T11:57:21.939Z,54.00
2019-05-11T11:59:51.915Z,55.70
2019-05-11T12:02:21.865Z,53.50
2019-05-11T12:04:51.718Z,50.90
2019-05-11T12:07:21.663Z,45.10
2019-05-11T12:09:51.775Z,44.70
2019-05-11T12:12:21.734Z,44.90
2019-05-11T12:14:52.740Z,42.90
2019-05-11T12:17:22.679Z,41.30
2019-05-11T12:19:52.592Z,39.00
2019-05-11T12:22:22.567Z,37.80
2019-05-11T12:24:52.646Z,40.10
2019-05-11T12:27:22.597Z,41.20
2019-05-11T12:29:52.569Z,42.10
2019-05-11T12:32:29.507Z,44.20
2019-05-11T12:34:59.379Z,46.20
2019-05-11T12:37:29.313Z,47.00
2019-05-11T12:39:59.272Z,47.70
2019-05-11T12:42:29.178Z,49.00
2019-05-11T12:44:59.069Z,48.80
2019-05-11T12:47:28.967Z,48.10
2019-05-11T12:49:58.837Z,47.30
2019-05-11T12:52:28.701Z,46.80
2019-05-11T12:54:58.935Z,46.00
2019-05-11T12:57:28.862Z,46.30
2019-05-11T12:59:58.852Z,45.90
2019-05-11T13:02:28.757Z,44.60
2019-05-11T13:04:58.647Z,40.70
2019-05-11T13:07:28.612Z,38.10
2019-05-11T13:09:58.540Z,37.10
2019-05-11T13:12:28.491Z,37.00
2019-05-11T13:14:58.423Z,39.10
2019-05-11T13:17:37.040Z,40.00
2019-05-11T13:19:59.847Z,41.80
2019-05-11T13:22:29.789Z,44.10
2019-05-11T13:24:59.760Z,44.90
2019-05-11T13:27:30.923Z,45.10
2019-05-11T13:30:01.002Z,45.30
2019-05-11T13:32:31.054Z,45.60
2019-05-11T13:35:01.041Z,46.00
2019-05-11T13:37:30.921Z,45.90
2019-05-11T13:40:00.900Z,45.60
2019-05-11T13:42:30.807Z,45.40
2019-05-11T13:45:00.660Z,46.30
2019-05-11T13:47:30.609Z,46.00
2019-05-11T13:50:00.598Z,46.00
2019-05-11T13:52:30.521Z,45.70
2019-05-11T13:55:00.375Z,46.10
2019-05-11T13:57:30.385Z,46.20
2019-05-11T14:00:00.319Z,46.50
2019-05-11T14:02:30.429Z,46.50
2019-05-11T14:05:00.395Z,46.70
2019-05-11T14:07:30.331Z,46.60
2019-05-11T14:10:00.460Z,46.80
2019-05-11T14:12:30.534Z,47.50
2019-05-11T14:15:00.758Z,47.80
2019-05-11T14:17:32.746Z,47.80
2019-05-11T14:20:09.144Z,47.60
2019-05-11T14:22:40.776Z,47.20
2019-05-11T14:25:11.324Z,46.40
2019-05-11T14:27:41.260Z,46.30
2019-05-11T14:30:11.334Z,46.30
2019-05-11T14:32:42.675Z,45.90
2019-05-11T14:35:15.774Z,45.20
2019-05-11T14:37:45.420Z,46.20
2019-05-11T14:40:17.652Z,46.60
2019-05-11T14:42:49.003Z,46.80
2019-05-11T14:45:19.045Z,47.00
2019-05-11T14:47:49.112Z,47.20
2019-05-11T14:50:19.148Z,47.50
2019-05-11T14:52:51.743Z,48.00
2019-05-11T14:55:21.684Z,49.60
2019-05-11T14:57:51.623Z,50.80
2019-05-11T15:00:21.572Z,50.90
2019-05-11T15:02:51.451Z,51.10
2019-05-11T15:05:21.754Z,50.90
2019-05-11T15:07:52.630Z,50.70
2019-05-11T15:10:23.121Z,51.60
2019-05-11T15:12:53.416Z,52.30
2019-05-11T15:15:23.553Z,53.20
2019-05-11T15:17:53.464Z,53.30
2019-05-11T15:20:23.630Z,53.40
2019-05-11T15:22:53.490Z,53.70
2019-05-11T15:25:23.340Z,53.80
2019-05-11T15:27:53.291Z,54.20
2019-05-11T15:30:24.102Z,54.70
2019-05-11T15:32:54.076Z,55.90
2019-05-11T15:35:24.138Z,55.40
2019-05-11T15:37:54.053Z,55.80
2019-05-11T15:40:23.997Z,56.40
2019-05-11T15:42:53.852Z,58.10
2019-05-11T15:45:23.780Z,57.20
2019-05-11T15:47:53.755Z,57.70
2019-05-11T15:50:23.899Z,58.20
2019-05-11T15:52:53.848Z,58.70
2019-05-11T15:55:24.576Z,59.30
2019-05-11T15:57:57.204Z,59.40
2019-05-11T16:00:28.123Z,58.80
2019-05-11T16:02:59.615Z,58.90
2019-05-11T16:05:29.722Z,58.80
2019-05-11T16:08:01.720Z,58.80
2019-05-11T16:10:31.426Z,58.30
2019-05-11T16:13:01.301Z,58.90
2019-05-11T16:15:31.327Z,58.90
2019-05-11T16:18:01.256Z,59.60
2019-05-11T16:20:31.130Z,59.90
2019-05-11T16:23:01.299Z,59.30
2019-05-11T16:25:31.153Z,59.60
2019-05-11T16:28:01.093Z,59.40
2019-05-11T16:30:31.009Z,60.70
2019-05-11T16:33:00.947Z,61.20
2019-05-11T16:35:30.813Z,62.00
2019-05-11T16:38:00.758Z,62.50
2019-05-11T16:40:30.722Z,61.90
2019-05-11T16:43:00.652Z,60.40
2019-05-11T16:45:30.537Z,60.20
2019-05-11T16:48:00.452Z,60.70
2019-05-11T16:50:30.348Z,60.10
2019-05-11T16:53:00.286Z,60.70
2019-05-11T16:55:30.222Z,60.50
2019-05-11T16:58:00.097Z,60.10
2019-05-11T17:00:29.949Z,60.10
2019-05-11T17:02:59.973Z,60.00
2019-05-11T17:05:33.555Z,60.20
2019-05-11T17:08:01.454Z,60.40
2019-05-11T17:10:31.421Z,61.00
2019-05-11T17:13:02.399Z,60.70
2019-05-11T17:15:32.278Z,61.10
2019-05-11T17:18:02.125Z,61.50
2019-05-11T17:20:32.164Z,62.30
2019-05-11T17:23:02.181Z,63.00
2019-05-11T17:25:32.106Z,63.80
2019-05-11T17:28:01.965Z,64.10
2019-05-11T17:30:31.851Z,64.60
2019-05-11T17:33:01.768Z,65.20
2019-05-11T17:35:31.639Z,65.40
2019-05-11T17:38:02.179Z,65.80
2019-05-11T17:40:32.237Z,66.00
2019-05-11T17:43:02.624Z,66.20
2019-05-11T17:45:32.940Z,69.00
2019-05-11T17:48:02.932Z,67.60
2019-05-11T17:50:33.273Z,66.30
2019-05-11T17:53:03.365Z,66.20
2019-05-11T17:55:33.251Z,66.30
2019-05-11T17:58:04.286Z,66.10
2019-05-11T18:00:35.340Z,65.50
2019-05-11T18:03:07.374Z,65.40
2019-05-11T18:05:37.972Z,65.90
2019-05-11T18:08:08.686Z,65.90
2019-05-11T18:10:38.917Z,66.40
2019-05-11T18:13:08.864Z,66.60
2019-05-11T18:15:39.915Z,67.10
2019-05-11T18:18:09.844Z,67.60
2019-05-11T18:20:39.798Z,67.80
2019-05-11T18:23:09.699Z,68.30
2019-05-11T18:25:39.598Z,68.60
2019-05-11T18:28:09.556Z,69.00
2019-05-11T18:30:39.571Z,69.50
2019-05-11T18:33:09.495Z,69.80
2019-05-11T18:35:39.495Z,69.90
2019-05-11T18:38:09.433Z,70.30
2019-05-11T18:40:39.369Z,70.80
2019-05-11T18:43:09.299Z,72.10
2019-05-11T18:45:40.320Z,73.10
2019-05-11T18:48:10.192Z,73.70
2019-05-11T18:50:40.056Z,73.90
2019-05-11T18:53:10.965Z,74.10
2019-05-11T18:55:40.827Z,74.10
2019-05-11T18:58:11.798Z,74.20
2019-05-11T19:00:41.676Z,74.50
2019-05-11T19:03:11.526Z,75.00
2019-05-11T19:05:41.466Z,75.30
2019-05-11T19:08:11.380Z,75.70
2019-05-11T19:10:41.435Z,76.00
2019-05-11T19:13:11.377Z,76.30
2019-05-11T19:15:41.308Z,76.30
2019-05-11T19:18:11.423Z,76.60
2019-05-11T19:20:45.549Z,76.60
2019-05-11T19:23:13.332Z,77.00
2019-05-11T19:25:43.254Z,77.40
2019-05-11T19:28:13.280Z,77.70
2019-05-11T19:30:43.225Z,78.20
2019-05-11T19:33:15.293Z,78.40
2019-05-11T19:35:45.505Z,78.70
2019-05-11T19:38:15.456Z,79.30
2019-05-11T19:40:48.019Z,79.80
2019-05-11T19:43:18.589Z,79.90
2019-05-11T19:45:48.999Z,80.00
2019-05-11T19:48:21.293Z,80.60
2019-05-11T19:51:03.652Z,81.80
2019-05-11T19:53:23.680Z,83.00
2019-05-11T19:55:54.916Z,83.30
2019-05-11T19:58:28.988Z,83.10
2019-05-11T20:00:59.535Z,83.60
2019-05-11T20:03:31.432Z,84.10
2019-05-11T20:06:04.327Z,83.90
2019-05-11T20:08:36.586Z,84.20
2019-05-11T20:11:09.430Z,84.50
2019-05-11T20:13:42.381Z,84.70
2019-05-11T20:16:12.887Z,84.70
2019-05-11T20:18:44.701Z,84.50
2019-05-11T20:21:22.516Z,84.30
2019-05-11T20:23:49.283Z,84.80
2019-05-11T20:26:22.308Z,83.70
2019-05-11T20:28:53.922Z,83.90
2019-05-11T20:31:28.066Z,83.60
2019-05-11T20:33:59.900Z,84.00
2019-05-11T20:36:34.956Z,84.10
2019-05-11T20:39:08.023Z,84.30
2019-05-11T20:41:40.800Z,84.50
2019-05-11T20:44:10.780Z,84.50
2019-05-11T20:46:40.838Z,85.40
2019-05-11T20:49:13.725Z,85.10
2019-05-11T20:51:45.995Z,85.20
2019-05-11T20:54:17.836Z,85.20
2019-05-11T20:56:51.248Z,85.10
2019-05-11T20:59:24.647Z,85.20
2019-05-11T21:01:58.765Z,85.20
2019-05-11T21:04:33.485Z,85.10
2019-05-11T21:07:08.345Z,85.20
2019-05-11T21:09:38.030Z,84.80
2019-05-11T21:12:08.242Z,85.30
2019-05-11T21:14:39.008Z,85.40
2019-05-11T21:17:12.012Z,85.40
2019-05-11T21:19:47.891Z,85.90
2019-05-11T21:22:18.170Z,86.20
2019-05-11T21:24:51.438Z,86.70
2019-05-11T21:27:24.459Z,86.90
2019-05-11T21:29:58.282Z,87.60
2019-05-11T21:32:27.959Z,86.80
2019-05-11T21:35:01.015Z,86.90
2019-05-11T21:37:32.554Z,87.10
2019-05-11T21:40:02.930Z,88.00
2019-05-11T21:42:33.200Z,88.20
2019-05-11T21:45:03.910Z,88.40
2019-05-11T21:47:33.860Z,88.70
2019-05-11T21:50:04.206Z,88.20
2019-05-11T21:52:34.151Z,88.40
2019-05-11T21:55:09.561Z,88.40
2019-05-11T21:57:39.765Z,88.60
2019-05-11T22:00:11.927Z,89.10
2019-05-11T22:02:45.129Z,89.70
2019-05-11T22:05:20.422Z,90.30
2019-05-11T22:07:49.019Z,90.00
2019-05-11T22:10:19.908Z,90.00
2019-05-11T22:12:50.176Z,90.00
2019-05-11T22:15:20.117Z,89.70
2019-05-11T22:17:51.403Z,90.10
2019-05-11T22:20:22.518Z,90.00
2019-05-11T22:22:54.114Z,89.60
2019-05-11T22:25:23.994Z,89.60
2019-05-11T22:27:57.513Z,89.50
2019-05-11T22:30:28.422Z,89.30
2019-05-11T22:32:58.879Z,89.40
2019-05-11T22:35:29.398Z,89.10
2019-05-11T22:38:00.825Z,89.30
2019-05-11T22:40:32.706Z,89.30
2019-05-11T22:43:02.700Z,89.10
2019-05-11T22:45:32.754Z,89.00
2019-05-11T22:48:02.672Z,89.00
2019-05-11T22:50:32.554Z,89.40
2019-05-11T22:53:02.495Z,89.60
2019-05-11T22:55:32.345Z,89.40
2019-05-11T22:58:02.248Z,89.60
2019-05-11T23:00:43.559Z,89.40
2019-05-11T23:03:13.796Z,89.40
2019-05-11T23:05:43.904Z,89.00
2019-05-11T23:08:13.872Z,89.10
2019-05-11T23:10:43.774Z,88.80
2019-05-11T23:13:13.654Z,89.00
2019-05-11T23:15:43.592Z,89.20
2019-05-11T23:18:13.529Z,89.30
2019-05-11T23:20:43.382Z,89.10
2019-05-11T23:23:13.307Z,88.80
2019-05-11T23:25:43.161Z,88.70
2019-05-11T23:28:13.031Z,88.50
2019-05-11T23:30:42.964Z,88.30
2019-05-11T23:33:12.905Z,88.00
2019-05-11T23:35:42.821Z,88.60
2019-05-11T23:38:12.766Z,87.40
2019-05-11T23:40:42.702Z,87.70
2019-05-11T23:43:12.573Z,88.10
2019-05-11T23:45:42.501Z,88.10
2019-05-11T23:48:12.449Z,88.20
2019-05-11T23:50:42.379Z,88.40
2019-05-11T23:53:12.366Z,88.70
2019-05-11T23:55:42.348Z,88.50
2019-05-11T23:58:12.256Z,88.50
